sensor_id;sensor_type;location;lat;lon;timestamp;pressure;altitude;pressure_sealevel;temperature;humidity
31357;BME280;60001;48.404;11.738;2023-04-03T00:00:06;96846.53;;;4.12;66.92
31357;BME280;60001;48.404;11.738;2023-04-03T00:01:38;96845.13;;;4.10;66.65
31357;BME280;60001;48.404;11.738;2023-04-03T00:03:12;96852.56;;;4.13;67.04
31357;BME280;60001;48.404;11.738;2023-04-03T00:04:43;96850.78;;;4.13;66.36
31357;BME280;60001;48.404;11.738;2023-04-03T00:06:15;96850.97;;;4.12;66.55
31357;BME280;60001;48.404;11.738;2023-04-03T00:07:46;96853.78;;;4.10;66.76
31357;BME280;60001;48.404;11.738;2023-04-03T00:09:20;96853.78;;;4.04;66.93
31357;BME280;60001;48.404;11.738;2023-04-03T00:10:51;96847.09;;;4.01;66.91
31357;BME280;60001;48.404;11.738;2023-04-03T00:12:23;96862.41;;;4.04;67.35
31357;BME280;60001;48.404;11.738;2023-04-03T00:13:54;96856.19;;;4.05;67.53
31357;BME280;60001;48.404;11.738;2023-04-03T00:15:26;96855.16;;;4.06;66.76
31357;BME280;60001;48.404;11.738;2023-04-03T00:16:57;96852.94;;;4.10;67.26
31357;BME280;60001;48.404;11.738;2023-04-03T00:18:31;96851.97;;;4.11;67.61
31357;BME280;60001;48.404;11.738;2023-04-03T00:20:04;96858.38;;;4.08;67.18
31357;BME280;60001;48.404;11.738;2023-04-03T00:21:36;96855.78;;;4.08;67.32
31357;BME280;60001;48.404;11.738;2023-04-03T00:23:08;96855.78;;;4.08;67.61
31357;BME280;60001;48.404;11.738;2023-04-03T00:24:40;96857.59;;;4.08;67.55
31357;BME280;60001;48.404;11.738;2023-04-03T00:26:12;96853.59;;;4.12;67.84
31357;BME280;60001;48.404;11.738;2023-04-03T00:27:43;96858.41;;;4.15;67.60
31357;BME280;60001;48.404;11.738;2023-04-03T00:29:14;96862.22;;;4.12;67.48
31357;BME280;60001;48.404;11.738;2023-04-03T00:30:48;96851.56;;;4.07;67.38
31357;BME280;60001;48.404;11.738;2023-04-03T00:32:20;96852.16;;;4.09;67.10
31357;BME280;60001;48.404;11.738;2023-04-03T00:33:53;96853.97;;;4.09;67.80
31357;BME280;60001;48.404;11.738;2023-04-03T00:35:25;96856.00;;;4.13;67.27
31357;BME280;60001;48.404;11.738;2023-04-03T00:36:57;96851.16;;;4.17;67.60
31357;BME280;60001;48.404;11.738;2023-04-03T00:38:28;96854.19;;;4.14;66.84
31357;BME280;60001;48.404;11.738;2023-04-03T00:40:00;96857.59;;;4.15;67.19
31357;BME280;60001;48.404;11.738;2023-04-03T00:41:31;96858.00;;;4.11;67.19
31357;BME280;60001;48.404;11.738;2023-04-03T00:43:12;96859.00;;;4.10;67.18
31357;BME280;60001;48.404;11.738;2023-04-03T00:46:52;96853.13;;;4.02;67.05
31357;BME280;60001;48.404;11.738;2023-04-03T00:48:29;96858.16;;;3.97;67.05
31357;BME280;60001;48.404;11.738;2023-04-03T00:50:03;96859.34;;;3.94;67.07
31357;BME280;60001;48.404;11.738;2023-04-03T00:51:35;96851.47;;;3.88;67.17
31357;BME280;60001;48.404;11.738;2023-04-03T00:53:12;96852.13;;;3.90;67.31
31357;BME280;60001;48.404;11.738;2023-04-03T00:54:47;96842.63;;;3.89;67.72
31357;BME280;60001;48.404;11.738;2023-04-03T00:56:21;96856.94;;;3.93;67.57
31357;BME280;60001;48.404;11.738;2023-04-03T00:57:55;96843.66;;;3.94;67.09
31357;BME280;60001;48.404;11.738;2023-04-03T00:59:32;96853.91;;;3.96;67.07
31357;BME280;60001;48.404;11.738;2023-04-03T01:01:10;96844.88;;;3.92;67.03
31357;BME280;60001;48.404;11.738;2023-04-03T01:02:44;96854.13;;;3.94;67.20
31357;BME280;60001;48.404;11.738;2023-04-03T01:04:27;96851.72;;;3.93;66.89
31357;BME280;60001;48.404;11.738;2023-04-03T01:06:01;96847.06;;;3.88;66.92
31357;BME280;60001;48.404;11.738;2023-04-03T01:07:33;96841.81;;;3.81;66.85
31357;BME280;60001;48.404;11.738;2023-04-03T01:09:07;96849.06;;;3.86;67.31
31357;BME280;60001;48.404;11.738;2023-04-03T01:10:39;96851.28;;;3.89;67.32
31357;BME280;60001;48.404;11.738;2023-04-03T01:12:15;96859.94;;;3.90;66.90
31357;BME280;60001;48.404;11.738;2023-04-03T01:13:48;96851.91;;;3.91;67.49
31357;BME280;60001;48.404;11.738;2023-04-03T01:15:22;96852.31;;;3.95;67.26
31357;BME280;60001;48.404;11.738;2023-04-03T01:16:53;96851.94;;;3.98;67.59
31357;BME280;60001;48.404;11.738;2023-04-03T01:18:26;96856.34;;;3.97;67.34
31357;BME280;60001;48.404;11.738;2023-04-03T01:22:17;96855.38;;;4.05;67.73
31357;BME280;60001;48.404;11.738;2023-04-03T01:24:00;96859.59;;;4.06;67.19
31357;BME280;60001;48.404;11.738;2023-04-03T01:25:38;96857.56;;;4.01;66.54
31357;BME280;60001;48.404;11.738;2023-04-03T01:27:10;96854.75;;;4.03;66.87
31357;BME280;60001;48.404;11.738;2023-04-03T01:28:42;96857.97;;;3.98;66.69
31357;BME280;60001;48.404;11.738;2023-04-03T01:30:17;96855.75;;;4.02;66.76
31357;BME280;60001;48.404;11.738;2023-04-03T01:31:53;96857.34;;;4.03;67.08
31357;BME280;60001;48.404;11.738;2023-04-03T01:33:26;96849.50;;;3.96;67.21
31357;BME280;60001;48.404;11.738;2023-04-03T01:34:56;96856.97;;;4.06;67.36
31357;BME280;60001;48.404;11.738;2023-04-03T01:36:31;96847.53;;;4.05;67.65
31357;BME280;60001;48.404;11.738;2023-04-03T01:38:03;96857.00;;;4.12;67.98
31357;BME280;60001;48.404;11.738;2023-04-03T01:39:33;96861.63;;;4.10;67.52
31357;BME280;60001;48.404;11.738;2023-04-03T01:41:05;96865.63;;;4.06;67.30
31357;BME280;60001;48.404;11.738;2023-04-03T01:42:36;96866.03;;;4.03;67.44
31357;BME280;60001;48.404;11.738;2023-04-03T01:44:08;96862.78;;;4.01;67.76
31357;BME280;60001;48.404;11.738;2023-04-03T01:45:40;96858.78;;;3.99;67.11
31357;BME280;60001;48.404;11.738;2023-04-03T01:47:13;96866.00;;;3.97;68.09
31357;BME280;60001;48.404;11.738;2023-04-03T01:48:44;96870.81;;;4.00;67.97
31357;BME280;60001;48.404;11.738;2023-04-03T01:50:15;96870.59;;;3.95;67.80
31357;BME280;60001;48.404;11.738;2023-04-03T01:51:47;96859.94;;;3.96;67.84
31357;BME280;60001;48.404;11.738;2023-04-03T01:53:19;96868.41;;;3.98;67.96
31357;BME280;60001;48.404;11.738;2023-04-03T01:54:51;96866.19;;;3.95;67.80
31357;BME280;60001;48.404;11.738;2023-04-03T01:56:22;96858.16;;;3.97;67.82
31357;BME280;60001;48.404;11.738;2023-04-03T01:57:55;96868.22;;;4.00;68.18
31357;BME280;60001;48.404;11.738;2023-04-03T01:59:26;96866.63;;;4.05;67.79
31357;BME280;60001;48.404;11.738;2023-04-03T02:00:58;96866.41;;;4.00;67.63
31357;BME280;60001;48.404;11.738;2023-04-03T02:02:30;96863.97;;;3.92;67.81
31357;BME280;60001;48.404;11.738;2023-04-03T02:04:02;96856.69;;;3.81;67.88
31357;BME280;60001;48.404;11.738;2023-04-03T02:05:34;96864.34;;;3.82;68.00
31357;BME280;60001;48.404;11.738;2023-04-03T02:07:05;96859.53;;;3.86;68.74
31357;BME280;60001;48.404;11.738;2023-04-03T02:08:36;96856.72;;;3.88;68.05
31357;BME280;60001;48.404;11.738;2023-04-03T02:10:08;96860.31;;;3.87;68.23
31357;BME280;60001;48.404;11.738;2023-04-03T02:11:39;96858.72;;;3.85;67.97
31357;BME280;60001;48.404;11.738;2023-04-03T02:13:11;96859.31;;;3.88;68.32
31357;BME280;60001;48.404;11.738;2023-04-03T02:14:42;96863.38;;;3.90;68.99
31357;BME280;60001;48.404;11.738;2023-04-03T02:16:13;96860.34;;;3.93;68.66
31357;BME280;60001;48.404;11.738;2023-04-03T02:17:49;96854.72;;;3.90;68.44
31357;BME280;60001;48.404;11.738;2023-04-03T02:19:20;96853.31;;;3.94;68.53
31357;BME280;60001;48.404;11.738;2023-04-03T02:20:52;96857.34;;;3.96;68.81
31357;BME280;60001;48.404;11.738;2023-04-03T02:22:23;96853.91;;;3.96;68.84
31357;BME280;60001;48.404;11.738;2023-04-03T02:23:55;96854.72;;;3.96;68.64
31357;BME280;60001;48.404;11.738;2023-04-03T02:25:26;96861.97;;;3.94;68.93
31357;BME280;60001;48.404;11.738;2023-04-03T02:26:58;96864.38;;;3.96;68.54
31357;BME280;60001;48.404;11.738;2023-04-03T02:28:30;96852.31;;;3.95;68.74
31357;BME280;60001;48.404;11.738;2023-04-03T02:30:01;96855.91;;;3.87;68.43
31357;BME280;60001;48.404;11.738;2023-04-03T02:31:33;96853.50;;;3.85;68.84
31357;BME280;60001;48.404;11.738;2023-04-03T02:33:06;96848.28;;;3.85;68.93
31357;BME280;60001;48.404;11.738;2023-04-03T02:34:37;96845.84;;;3.84;68.97
31357;BME280;60001;48.404;11.738;2023-04-03T02:36:11;96838.22;;;3.82;68.46
31357;BME280;60001;48.404;11.738;2023-04-03T02:37:43;96848.03;;;3.80;68.67
31357;BME280;60001;48.404;11.738;2023-04-03T02:39:14;96852.47;;;3.80;68.60
31357;BME280;60001;48.404;11.738;2023-04-03T02:40:46;96849.03;;;3.79;68.91
31357;BME280;60001;48.404;11.738;2023-04-03T02:42:18;96844.22;;;3.76;68.90
31357;BME280;60001;48.404;11.738;2023-04-03T02:43:49;96851.06;;;3.77;68.49
31357;BME280;60001;48.404;11.738;2023-04-03T02:45:21;96846.19;;;3.74;69.16
31357;BME280;60001;48.404;11.738;2023-04-03T02:46:53;96845.19;;;3.69;69.02
31357;BME280;60001;48.404;11.738;2023-04-03T02:48:25;96849.78;;;3.67;69.25
31357;BME280;60001;48.404;11.738;2023-04-03T02:49:57;96852.59;;;3.65;69.37
31357;BME280;60001;48.404;11.738;2023-04-03T02:51:29;96843.97;;;3.65;69.47
31357;BME280;60001;48.404;11.738;2023-04-03T02:53:00;96853.19;;;3.67;69.77
31357;BME280;60001;48.404;11.738;2023-04-03T02:54:32;96851.22;;;3.69;69.21
31357;BME280;60001;48.404;11.738;2023-04-03T02:56:04;96856.25;;;3.71;69.37
31357;BME280;60001;48.404;11.738;2023-04-03T02:57:36;96859.88;;;3.70;69.48
31357;BME280;60001;48.404;11.738;2023-04-03T02:59:08;96857.66;;;3.73;69.26
31357;BME280;60001;48.404;11.738;2023-04-03T03:00:40;96855.44;;;3.70;69.34
31357;BME280;60001;48.404;11.738;2023-04-03T03:02:11;96853.41;;;3.66;69.26
31357;BME280;60001;48.404;11.738;2023-04-03T03:03:44;96854.00;;;3.68;69.99
31357;BME280;60001;48.404;11.738;2023-04-03T03:05:17;96863.47;;;3.69;69.58
31357;BME280;60001;48.404;11.738;2023-04-03T03:06:48;96858.44;;;3.67;69.83
31357;BME280;60001;48.404;11.738;2023-04-03T03:08:21;96863.09;;;3.72;69.63
31357;BME280;60001;48.404;11.738;2023-04-03T03:12:19;96863.31;;;3.77;69.82
31357;BME280;60001;48.404;11.738;2023-04-03T03:13:52;96860.28;;;3.73;69.16
31357;BME280;60001;48.404;11.738;2023-04-03T03:15:22;96863.28;;;3.70;69.29
31357;BME280;60001;48.404;11.738;2023-04-03T03:16:54;96856.22;;;3.64;69.29
31357;BME280;60001;48.404;11.738;2023-04-03T03:18:26;96858.22;;;3.62;69.49
31357;BME280;60001;48.404;11.738;2023-04-03T03:19:59;96854.22;;;3.66;69.22
31357;BME280;60001;48.404;11.738;2023-04-03T03:21:31;96851.03;;;3.71;69.29
31357;BME280;60001;48.404;11.738;2023-04-03T03:23:03;96853.25;;;3.74;69.36
31357;BME280;60001;48.404;11.738;2023-04-03T03:24:35;96847.38;;;3.65;69.38
31357;BME280;60001;48.404;11.738;2023-04-03T03:26:09;96844.38;;;3.62;69.59
31357;BME280;60001;48.404;11.738;2023-04-03T03:27:41;96853.81;;;3.63;69.57
31357;BME280;60001;48.404;11.738;2023-04-03T03:29:12;96843.34;;;3.56;69.27
31357;BME280;60001;48.404;11.738;2023-04-03T03:30:44;96852.75;;;3.50;69.81
31357;BME280;60001;48.404;11.738;2023-04-03T03:32:16;96846.31;;;3.53;69.87
31357;BME280;60001;48.404;11.738;2023-04-03T03:33:48;96854.78;;;3.55;70.08
31357;BME280;60001;48.404;11.738;2023-04-03T03:35:21;96848.72;;;3.54;69.56
31357;BME280;60001;48.404;11.738;2023-04-03T03:36:53;96838.69;;;3.51;70.07
31357;BME280;60001;48.404;11.738;2023-04-03T03:38:25;96852.19;;;3.62;69.50
31357;BME280;60001;48.404;11.738;2023-04-03T03:39:57;96857.22;;;3.63;69.63
31357;BME280;60001;48.404;11.738;2023-04-03T03:41:28;96855.41;;;3.64;69.78
31357;BME280;60001;48.404;11.738;2023-04-03T03:42:59;96853.84;;;3.69;69.96
31357;BME280;60001;48.404;11.738;2023-04-03T03:44:31;96860.66;;;3.70;69.87
31357;BME280;60001;48.404;11.738;2023-04-03T03:46:03;96860.66;;;3.70;69.77
31357;BME280;60001;48.404;11.738;2023-04-03T03:47:35;96858.25;;;3.69;69.21
31357;BME280;60001;48.404;11.738;2023-04-03T03:49:07;96855.66;;;3.69;69.53
31357;BME280;60001;48.404;11.738;2023-04-03T03:50:40;96862.28;;;3.71;69.77
31357;BME280;60001;48.404;11.738;2023-04-03T03:52:11;96860.28;;;3.73;69.39
31357;BME280;60001;48.404;11.738;2023-04-03T03:53:42;96856.47;;;3.76;69.27
31357;BME280;60001;48.404;11.738;2023-04-03T03:55:14;96850.25;;;3.77;69.61
31357;BME280;60001;48.404;11.738;2023-04-03T03:56:46;96870.78;;;3.87;69.62
31357;BME280;60001;48.404;11.738;2023-04-03T03:58:18;96865.56;;;3.87;69.57
31357;BME280;60001;48.404;11.738;2023-04-03T03:59:49;96864.34;;;3.82;69.09
31357;BME280;60001;48.404;11.738;2023-04-03T04:01:22;96864.75;;;3.86;69.64
31357;BME280;60001;48.404;11.738;2023-04-03T04:02:54;96865.75;;;3.85;69.21
31357;BME280;60001;48.404;11.738;2023-04-03T04:04:26;96866.56;;;3.85;69.17
31357;BME280;60001;48.404;11.738;2023-04-03T04:05:59;96869.16;;;3.85;69.17
31357;BME280;60001;48.404;11.738;2023-04-03T04:07:31;96869.56;;;3.82;69.20
31357;BME280;60001;48.404;11.738;2023-04-03T04:09:03;96865.53;;;3.80;69.11
31357;BME280;60001;48.404;11.738;2023-04-03T04:10:37;96857.06;;;3.71;69.40
31357;BME280;60001;48.404;11.738;2023-04-03T04:12:09;96861.88;;;3.74;69.42
31357;BME280;60001;48.404;11.738;2023-04-03T04:13:40;96859.69;;;3.78;69.47
31357;BME280;60001;48.404;11.738;2023-04-03T04:15:12;96862.31;;;3.78;69.39
31357;BME280;60001;48.404;11.738;2023-04-03T04:16:44;96854.66;;;3.76;69.56
31357;BME280;60001;48.404;11.738;2023-04-03T04:18:16;96865.13;;;3.76;69.81
31357;BME280;60001;48.404;11.738;2023-04-03T04:19:48;96859.69;;;3.78;69.39
31357;BME280;60001;48.404;11.738;2023-04-03T04:21:21;96865.94;;;3.77;69.63
31357;BME280;60001;48.404;11.738;2023-04-03T04:22:53;96861.47;;;3.71;69.22
31357;BME280;60001;48.404;11.738;2023-04-03T04:24:25;96868.09;;;3.73;69.80
31357;BME280;60001;48.404;11.738;2023-04-03T04:25:56;96867.69;;;3.70;69.39
31357;BME280;60001;48.404;11.738;2023-04-03T04:27:27;96865.47;;;3.67;69.45
31357;BME280;60001;48.404;11.738;2023-04-03T04:28:59;96864.84;;;3.65;69.30
31357;BME280;60001;48.404;11.738;2023-04-03T04:30:30;96864.84;;;3.65;70.03
31357;BME280;60001;48.404;11.738;2023-04-03T04:32:02;96868.88;;;3.67;70.12
31357;BME280;60001;48.404;11.738;2023-04-03T04:33:34;96873.09;;;3.68;69.80
31357;BME280;60001;48.404;11.738;2023-04-03T04:35:06;96879.94;;;3.69;70.45
31357;BME280;60001;48.404;11.738;2023-04-03T04:36:40;96866.25;;;3.67;70.13
31357;BME280;60001;48.404;11.738;2023-04-03T04:38:12;96874.28;;;3.66;69.95
31357;BME280;60001;48.404;11.738;2023-04-03T04:39:43;96871.09;;;3.64;69.22
31357;BME280;60001;48.404;11.738;2023-04-03T04:41:14;96863.00;;;3.58;69.79
31357;BME280;60001;48.404;11.738;2023-04-03T04:42:46;96871.28;;;3.62;70.01
31357;BME280;60001;48.404;11.738;2023-04-03T04:44:18;96879.13;;;3.62;70.14
31357;BME280;60001;48.404;11.738;2023-04-03T04:46:00;96861.56;;;3.49;69.90
31357;BME280;60001;48.404;11.738;2023-04-03T04:47:32;96873.47;;;3.58;69.93
31357;BME280;60001;48.404;11.738;2023-04-03T04:49:04;96883.31;;;3.56;70.59
31357;BME280;60001;48.404;11.738;2023-04-03T04:50:36;96880.69;;;3.56;70.36
31357;BME280;60001;48.404;11.738;2023-04-03T04:52:09;96882.28;;;3.57;70.65
31357;BME280;60001;48.404;11.738;2023-04-03T04:53:42;96882.28;;;3.57;70.59
31357;BME280;60001;48.404;11.738;2023-04-03T04:55:14;96887.13;;;3.61;70.55
31357;BME280;60001;48.404;11.738;2023-04-03T04:56:45;96887.75;;;3.63;70.87
31357;BME280;60001;48.404;11.738;2023-04-03T04:58:17;96887.75;;;3.63;70.18
31357;BME280;60001;48.404;11.738;2023-04-03T04:59:49;96890.72;;;3.60;70.32
31357;BME280;60001;48.404;11.738;2023-04-03T05:01:21;96887.53;;;3.57;70.41
31357;BME280;60001;48.404;11.738;2023-04-03T05:02:53;96876.59;;;3.47;70.87
31357;BME280;60001;48.404;11.738;2023-04-03T05:04:24;96887.09;;;3.54;70.85
31357;BME280;60001;48.404;11.738;2023-04-03T05:05:56;96886.50;;;3.58;70.94
31357;BME280;60001;48.404;11.738;2023-04-03T05:07:28;96891.38;;;3.62;70.81
31357;BME280;60001;48.404;11.738;2023-04-03T05:09:01;96890.97;;;3.65;70.20
31357;BME280;60001;48.404;11.738;2023-04-03T05:10:32;96886.75;;;3.64;70.42
31357;BME280;60001;48.404;11.738;2023-04-03T05:12:04;96893.38;;;3.66;70.63
31357;BME280;60001;48.404;11.738;2023-04-03T05:13:36;96889.97;;;3.66;70.83
31357;BME280;60001;48.404;11.738;2023-04-03T05:15:08;96890.97;;;3.65;70.82
31357;BME280;60001;48.404;11.738;2023-04-03T05:16:40;96890.38;;;3.63;70.09
31357;BME280;60001;48.404;11.738;2023-04-03T05:18:12;96898.56;;;3.60;70.62
31357;BME280;60001;48.404;11.738;2023-04-03T05:19:44;96895.16;;;3.59;70.23
31357;BME280;60001;48.404;11.738;2023-04-03T05:21:15;96893.34;;;3.60;70.69
31357;BME280;60001;48.404;11.738;2023-04-03T05:22:49;96893.34;;;3.60;70.67
31357;BME280;60001;48.404;11.738;2023-04-03T05:24:21;96897.75;;;3.59;70.74
31357;BME280;60001;48.404;11.738;2023-04-03T05:25:53;96896.34;;;3.56;70.65
31357;BME280;60001;48.404;11.738;2023-04-03T05:27:25;96893.50;;;3.51;70.37
31357;BME280;60001;48.404;11.738;2023-04-03T05:28:58;96894.53;;;3.57;70.76
31357;BME280;60001;48.404;11.738;2023-04-03T05:30:30;96902.19;;;3.58;70.55
31357;BME280;60001;48.404;11.738;2023-04-03T05:32:02;96887.13;;;3.61;70.00
31357;BME280;60001;48.404;11.738;2023-04-03T05:33:34;96891.97;;;3.64;70.35
31357;BME280;60001;48.404;11.738;2023-04-03T05:35:06;96894.19;;;3.67;70.20
31357;BME280;60001;48.404;11.738;2023-04-03T05:36:38;96892.38;;;3.67;70.16
31357;BME280;60001;48.404;11.738;2023-04-03T05:38:12;96896.84;;;3.73;70.28
31357;BME280;60001;48.404;11.738;2023-04-03T05:39:43;96892.41;;;3.74;70.11
31357;BME280;60001;48.404;11.738;2023-04-03T05:41:15;96898.06;;;3.77;70.43
31357;BME280;60001;48.404;11.738;2023-04-03T05:42:47;96891.63;;;3.80;69.75
31357;BME280;60001;48.404;11.738;2023-04-03T05:44:19;96899.09;;;3.83;70.09
31357;BME280;60001;48.404;11.738;2023-04-03T05:45:51;96897.91;;;3.85;69.81
31357;BME280;60001;48.404;11.738;2023-04-03T05:47:23;96896.91;;;3.87;69.88
31357;BME280;60001;48.404;11.738;2023-04-03T05:48:55;96900.91;;;3.89;69.90
31357;BME280;60001;48.404;11.738;2023-04-03T05:50:26;96899.50;;;3.87;69.05
31357;BME280;60001;48.404;11.738;2023-04-03T05:51:58;96892.69;;;3.85;69.21
31357;BME280;60001;48.404;11.738;2023-04-03T05:53:35;96896.09;;;3.86;69.21
31357;BME280;60001;48.404;11.738;2023-04-03T05:55:07;96896.53;;;3.90;69.34
31357;BME280;60001;48.404;11.738;2023-04-03T05:56:39;96885.44;;;3.88;69.45
31357;BME280;60001;48.404;11.738;2023-04-03T05:58:11;96898.97;;;3.98;69.55
31357;BME280;60001;48.404;11.738;2023-04-03T05:59:43;96904.59;;;4.01;69.60
31357;BME280;60001;48.404;11.738;2023-04-03T06:01:15;96904.22;;;4.04;69.01
31357;BME280;60001;48.404;11.738;2023-04-03T06:02:46;96905.81;;;4.05;69.02
31357;BME280;60001;48.404;11.738;2023-04-03T06:04:17;96900.81;;;4.04;69.13
31357;BME280;60001;48.404;11.738;2023-04-03T06:05:51;96905.03;;;4.05;69.03
31357;BME280;60001;48.404;11.738;2023-04-03T06:07:24;96886.31;;;4.01;69.57
31357;BME280;60001;48.404;11.738;2023-04-03T06:09:00;96906.66;;;4.12;69.50
31357;BME280;60001;48.404;11.738;2023-04-03T06:10:31;96897.38;;;4.03;68.99
31357;BME280;60001;48.404;11.738;2023-04-03T06:12:03;96906.06;;;4.10;68.79
31357;BME280;60001;48.404;11.738;2023-04-03T06:13:35;96908.25;;;4.13;69.22
31357;BME280;60001;48.404;11.738;2023-04-03T06:15:08;96912.47;;;4.15;68.91
31357;BME280;60001;48.404;11.738;2023-04-03T06:16:40;96905.88;;;4.19;69.05
31357;BME280;60001;48.404;11.738;2023-04-03T06:18:12;96913.09;;;4.23;69.28
31357;BME280;60001;48.404;11.738;2023-04-03T06:19:45;96916.16;;;4.27;69.11
31357;BME280;60001;48.404;11.738;2023-04-03T06:21:20;96913.75;;;4.32;69.04
31357;BME280;60001;48.404;11.738;2023-04-03T06:22:52;96914.38;;;4.34;69.10
31357;BME280;60001;48.404;11.738;2023-04-03T06:24:25;96915.97;;;4.35;68.70
31357;BME280;60001;48.404;11.738;2023-04-03T06:25:57;96921.41;;;4.33;68.50
31357;BME280;60001;48.404;11.738;2023-04-03T06:27:28;96912.94;;;4.38;68.56
31357;BME280;60001;48.404;11.738;2023-04-03T06:29:00;96916.19;;;4.33;68.22
31357;BME280;60001;48.404;11.738;2023-04-03T06:30:32;96915.75;;;4.36;67.95
31357;BME280;60001;48.404;11.738;2023-04-03T06:32:04;96922.44;;;4.39;67.95
31357;BME280;60001;48.404;11.738;2023-04-03T06:33:36;96924.84;;;4.40;67.52
31357;BME280;60001;48.404;11.738;2023-04-03T06:35:09;96922.44;;;4.46;68.25
31357;BME280;60001;48.404;11.738;2023-04-03T06:36:41;96929.09;;;4.48;67.75
31357;BME280;60001;48.404;11.738;2023-04-03T06:38:13;96924.47;;;4.50;67.70
31357;BME280;60001;48.404;11.738;2023-04-03T06:39:46;96923.06;;;4.54;67.91
31357;BME280;60001;48.404;11.738;2023-04-03T06:41:18;96925.28;;;4.57;67.84
31357;BME280;60001;48.404;11.738;2023-04-03T06:42:51;96924.06;;;4.53;67.64
31357;BME280;60001;48.404;11.738;2023-04-03T06:44:23;96924.47;;;4.57;67.44
31357;BME280;60001;48.404;11.738;2023-04-03T06:45:54;96923.28;;;4.53;66.82
31357;BME280;60001;48.404;11.738;2023-04-03T06:47:26;96860.78;;;4.10;66.75
31357;BME280;60001;48.404;11.738;2023-04-03T06:48:58;96929.13;;;4.61;67.85
31357;BME280;60001;48.404;11.738;2023-04-03T06:50:30;96924.09;;;4.66;67.84
31357;BME280;60001;48.404;11.738;2023-04-03T06:52:02;96920.88;;;4.71;67.05
31357;BME280;60001;48.404;11.738;2023-04-03T06:53:35;96923.28;;;4.73;67.38
31357;BME280;60001;48.404;11.738;2023-04-03T06:55:09;96922.09;;;4.68;67.26
31357;BME280;60001;48.404;11.738;2023-04-03T06:56:41;96921.50;;;4.73;66.84
31357;BME280;60001;48.404;11.738;2023-04-03T06:58:13;96927.28;;;4.49;66.67
31357;BME280;60001;48.404;11.738;2023-04-03T06:59:45;96929.09;;;4.48;66.50
31357;BME280;60001;48.404;11.738;2023-04-03T07:01:20;96928.69;;;4.58;66.43
31357;BME280;60001;48.404;11.738;2023-04-03T07:02:52;96926.72;;;4.60;66.92
31357;BME280;60001;48.404;11.738;2023-04-03T07:04:24;96932.34;;;4.70;66.41
31357;BME280;60001;48.404;11.738;2023-04-03T07:05:55;96930.97;;;4.74;66.08
31357;BME280;60001;48.404;11.738;2023-04-03T07:07:27;96932.56;;;4.68;66.28
31357;BME280;60001;48.404;11.738;2023-04-03T07:09:00;96934.38;;;4.68;66.33
31357;BME280;60001;48.404;11.738;2023-04-03T07:10:33;96933.56;;;4.74;66.25
31357;BME280;60001;48.404;11.738;2023-04-03T07:12:05;96941.81;;;4.78;66.11
31357;BME280;60001;48.404;11.738;2023-04-03T07:13:37;96944.25;;;4.86;66.45
31357;BME280;60001;48.404;11.738;2023-04-03T07:15:10;96942.84;;;4.90;65.94
31357;BME280;60001;48.404;11.738;2023-04-03T07:16:43;96945.06;;;5.00;66.04
31357;BME280;60001;48.404;11.738;2023-04-03T07:18:15;96947.88;;;4.98;66.09
31357;BME280;60001;48.404;11.738;2023-04-03T07:19:47;96950.91;;;4.95;65.37
31357;BME280;60001;48.404;11.738;2023-04-03T07:21:19;96952.31;;;4.91;65.33
31357;BME280;60001;48.404;11.738;2023-04-03T07:22:50;96958.75;;;4.95;65.70
31357;BME280;60001;48.404;11.738;2023-04-03T07:24:22;96953.31;;;4.90;65.17
31357;BME280;60001;48.404;11.738;2023-04-03T07:25:55;96950.06;;;4.75;65.24
31357;BME280;60001;48.404;11.738;2023-04-03T07:27:27;96953.88;;;4.72;65.17
31357;BME280;60001;48.404;11.738;2023-04-03T07:28:59;96956.91;;;4.69;65.02
31357;BME280;60001;48.404;11.738;2023-04-03T07:30:31;96963.13;;;4.68;65.37
31357;BME280;60001;48.404;11.738;2023-04-03T07:32:03;96965.94;;;4.60;65.65
31357;BME280;60001;48.404;11.738;2023-04-03T07:33:36;96957.91;;;4.68;65.77
31357;BME280;60001;48.404;11.738;2023-04-03T07:35:08;96957.28;;;4.73;65.66
31357;BME280;60001;48.404;11.738;2023-04-03T07:36:40;96960.72;;;4.80;65.36
31357;BME280;60001;48.404;11.738;2023-04-03T07:38:12;96961.13;;;4.77;65.24
31357;BME280;60001;48.404;11.738;2023-04-03T07:39:44;96957.31;;;4.86;65.53
31357;BME280;60001;48.404;11.738;2023-04-03T07:41:19;96966.97;;;4.85;64.81
31357;BME280;60001;48.404;11.738;2023-04-03T07:42:51;96968.97;;;4.77;65.37
31357;BME280;60001;48.404;11.738;2023-04-03T07:44:23;96966.78;;;4.80;65.01
31357;BME280;60001;48.404;11.738;2023-04-03T07:45:55;96966.41;;;4.90;64.55
31357;BME280;60001;48.404;11.738;2023-04-03T07:47:27;96967.19;;;4.90;64.95
31357;BME280;60001;48.404;11.738;2023-04-03T07:48:58;96971.84;;;5.02;65.04
31357;BME280;60001;48.404;11.738;2023-04-03T07:50:30;96972.03;;;5.07;64.53
31357;BME280;60001;48.404;11.738;2023-04-03T07:52:02;96971.25;;;5.13;64.40
31357;BME280;60001;48.404;11.738;2023-04-03T07:53:34;96968.63;;;5.13;64.64
31357;BME280;60001;48.404;11.738;2023-04-03T07:55:07;96983.16;;;5.15;64.22
31357;BME280;60001;48.404;11.738;2023-04-03T07:56:40;96956.75;;;5.04;63.77
31357;BME280;60001;48.404;11.738;2023-04-03T07:58:15;96969.25;;;5.08;64.18
31357;BME280;60001;48.404;11.738;2023-04-03T07:59:48;96981.72;;;5.26;64.25
31357;BME280;60001;48.404;11.738;2023-04-03T08:01:19;96986.56;;;5.29;64.05
31357;BME280;60001;48.404;11.738;2023-04-03T08:02:52;96986.38;;;5.37;64.02
31357;BME280;60001;48.404;11.738;2023-04-03T08:04:24;96978.50;;;5.50;63.70
31357;BME280;60001;48.404;11.738;2023-04-03T08:06:02;96986.75;;;5.41;63.34
31357;BME280;60001;48.404;11.738;2023-04-03T08:07:36;96982.94;;;5.30;62.68
31357;BME280;60001;48.404;11.738;2023-04-03T08:09:08;96975.69;;;5.32;63.12
31357;BME280;60001;48.404;11.738;2023-04-03T08:10:40;96982.53;;;5.33;63.42
31357;BME280;60001;48.404;11.738;2023-04-03T08:12:14;96979.53;;;5.43;63.33
31357;BME280;60001;48.404;11.738;2023-04-03T08:13:45;96980.13;;;5.52;62.42
31357;BME280;60001;48.404;11.738;2023-04-03T08:15:17;96981.31;;;5.56;62.61